Time;durP1;ratioP1;P1;durP2;ratioP2;P2;SDS_P1;SDS_P2;PMS_P1;PMS_P2;Temp;Humidity;BMP_temperature;BMP_pressure;BME280_temperature;BME280_humidity;BME280_pressure;Samples;Min_cycle;Max_cycle;Signal;HPM_P1;HPM_P2
2023/12/09 00:01:42;;;;;;;106.75;34.55;;;9.20;99.90;;;;;;5022665;28;20211;-41
2023/12/09 00:04:08;;;;;;;96.25;35.28;;;9.20;99.90;;;;;;5023252;28;20612;-37
2023/12/09 00:06:34;;;;;;;95.93;34.88;;;9.20;99.90;;;;;;5022676;28;20184;-37
2023/12/09 00:09:00;;;;;;;102.10;34.65;;;9.20;99.90;;;;;;5023201;28;20280;-37
2023/12/09 00:11:26;;;;;;;105.70;34.90;;;9.20;99.90;;;;;;5053364;28;20844;-38
2023/12/09 00:13:52;;;;;;;109.18;35.65;;;9.20;99.90;;;;;;5004532;28;20229;-41
2023/12/09 00:16:21;;;;;;;107.07;35.78;;;9.20;99.90;;;;;;5022617;28;20553;-40
2023/12/09 00:18:46;;;;;;;102.80;34.35;;;9.20;99.90;;;;;;5022621;28;20246;-40
2023/12/09 00:21:12;;;;;;;97.35;35.03;;;9.20;99.90;;;;;;5022131;28;20200;-35
2023/12/09 00:23:38;;;;;;;94.05;34.63;;;9.20;99.90;;;;;;5037480;28;20597;-40
2023/12/09 00:26:05;;;;;;;92.60;33.58;;;9.20;99.90;;;;;;5021508;28;21298;-40
2023/12/09 00:28:31;;;;;;;98.30;34.85;;;9.20;99.90;;;;;;5022524;28;21318;-41
2023/12/09 00:30:57;;;;;;;102.28;34.42;;;9.20;99.90;;;;;;5021806;28;20215;-37
2023/12/09 00:33:23;;;;;;;92.60;34.58;;;9.20;99.90;;;;;;5022027;28;20198;-38
2023/12/09 00:35:48;;;;;;;99.05;35.70;;;9.20;99.90;;;;;;5022414;28;20210;-39
2023/12/09 00:38:14;;;;;;;107.13;34.78;;;9.20;99.90;;;;;;5021013;28;20183;-38
2023/12/09 00:40:40;;;;;;;82.57;32.40;;;9.20;99.90;;;;;;5021024;28;20209;-37
2023/12/09 00:43:06;;;;;;;85.05;34.45;;;9.20;99.90;;;;;;5020750;28;20195;-39
2023/12/09 00:45:32;;;;;;;106.90;33.97;;;9.20;99.90;;;;;;5017235;28;20195;-37
2023/12/09 00:47:59;;;;;;;94.53;33.75;;;9.20;99.90;;;;;;5019953;28;20535;-36
2023/12/09 00:50:25;;;;;;;102.78;32.97;;;9.20;99.90;;;;;;5021116;28;20200;-38
2023/12/09 00:52:51;;;;;;;102.10;32.83;;;9.30;99.90;;;;;;5052071;28;20184;-39
2023/12/09 00:55:17;;;;;;;98.93;32.50;;;9.30;99.90;;;;;;5021581;28;20253;-37
2023/12/09 00:57:43;;;;;;;97.32;32.20;;;9.30;99.90;;;;;;5022038;28;20271;-35
2023/12/09 01:00:09;;;;;;;83.97;32.63;;;9.30;99.90;;;;;;5022019;28;20211;-38
2023/12/09 01:02:38;;;;;;;87.90;32.20;;;9.30;99.90;;;;;;5021707;28;20187;-37
2023/12/09 01:05:05;;;;;;;83.72;31.75;;;9.30;99.90;;;;;;5051852;28;20191;-38
2023/12/09 01:07:31;;;;;;;90.70;32.90;;;9.30;99.90;;;;;;5021485;28;20239;-38
2023/12/09 01:09:57;;;;;;;92.43;32.75;;;9.30;99.90;;;;;;5021431;28;20505;-35
2023/12/09 01:12:23;;;;;;;77.60;31.48;;;9.30;99.90;;;;;;5020196;28;20215;-37
2023/12/09 01:14:48;;;;;;;99.40;31.85;;;9.30;99.90;;;;;;5022013;28;20274;-41
2023/12/09 01:17:14;;;;;;;90.68;32.13;;;9.30;99.90;;;;;;5021111;28;20195;-41
2023/12/09 01:19:40;;;;;;;88.65;31.25;;;9.30;99.90;;;;;;5021632;28;21165;-37
2023/12/09 01:22:06;;;;;;;86.15;32.10;;;9.30;99.90;;;;;;5021127;28;20192;-34
2023/12/09 01:24:32;;;;;;;88.90;31.13;;;9.30;99.90;;;;;;5021393;28;20203;-36
2023/12/09 01:26:58;;;;;;;86.38;31.50;;;9.30;99.90;;;;;;5021539;28;20200;-39
2023/12/09 01:29:24;;;;;;;78.45;30.50;;;9.40;99.90;;;;;;5021536;28;20230;-38
2023/12/09 01:31:49;;;;;;;84.82;31.17;;;9.40;99.90;;;;;;5020191;28;20706;-40
2023/12/09 01:34:15;;;;;;;87.88;31.95;;;9.40;99.90;;;;;;5021082;28;20555;-37
2023/12/09 01:36:41;;;;;;;74.32;31.95;;;9.40;99.90;;;;;;5021187;28;20180;-36
2023/12/09 01:39:09;;;;;;;89.40;30.08;;;9.40;99.90;;;;;;5004515;28;20938;-36
2023/12/09 01:41:37;;;;;;;70.70;28.50;;;9.40;99.90;;;;;;5022045;28;20715;-38
2023/12/09 01:44:03;;;;;;;81.10;29.42;;;9.40;99.90;;;;;;5004299;28;20196;-39
2023/12/09 01:46:29;;;;;;;82.95;30.63;;;9.40;99.90;;;;;;5019221;28;20185;-37
2023/12/09 01:48:56;;;;;;;88.68;30.63;;;9.40;99.90;;;;;;5021161;28;20188;-40
2023/12/09 01:51:21;;;;;;;85.05;29.20;;;9.30;99.90;;;;;;5019709;28;21131;-39
2023/12/09 01:53:47;;;;;;;84.85;29.70;;;9.30;99.90;;;;;;5021285;28;20191;-38
2023/12/09 01:56:16;;;;;;;80.53;29.35;;;9.30;99.90;;;;;;5021517;28;20194;-40
2023/12/09 01:58:42;;;;;;;79.38;29.55;;;9.30;99.90;;;;;;5021508;28;20574;-39
2023/12/09 02:01:08;;;;;;;83.30;30.17;;;9.40;99.90;;;;;;5020785;28;20192;-36
2023/12/09 02:03:34;;;;;;;73.30;28.48;;;9.40;99.90;;;;;;5021041;28;20274;-37
2023/12/09 02:06:00;;;;;;;81.07;28.38;;;9.40;99.90;;;;;;5020992;28;20196;-38
2023/12/09 02:08:27;;;;;;;77.80;28.80;;;9.40;99.90;;;;;;5052165;28;20229;-38
2023/12/09 02:11:18;;;;;;;71.82;27.63;;;9.40;99.90;;;;;;5019591;28;20235;-45
2023/12/09 02:13:56;;;;;;;68.78;27.70;;;9.40;99.90;;;;;;5020587;28;20234;-38
2023/12/09 02:16:37;;;;;;;73.20;27.38;;;9.40;99.90;;;;;;5053367;28;20182;-41
2023/12/09 02:19:06;;;;;;;75.95;27.77;;;9.40;99.90;;;;;;5020689;28;20601;-40
2023/12/09 02:22:10;;;;;;;75.82;27.05;;;9.40;99.90;;;;;;5019506;28;20646;-38
2023/12/09 02:24:36;;;;;;;63.50;25.45;;;9.40;99.90;;;;;;5019578;28;20184;-37
2023/12/09 02:27:16;;;;;;;75.97;25.75;;;9.40;99.90;;;;;;5019444;28;20190;-38
2023/12/09 02:30:06;;;;;;;62.10;24.85;;;9.40;99.90;;;;;;5019144;28;20683;-38
2023/12/09 02:32:35;;;;;;;80.80;25.60;;;9.40;99.90;;;;;;5051989;28;20207;-43
2023/12/09 02:35:03;;;;;;;57.03;24.60;;;9.40;99.90;;;;;;5019330;28;20196;-37
2023/12/09 02:37:31;;;;;;;69.95;24.75;;;9.40;99.90;;;;;;5020818;28;20771;-38
2023/12/09 02:39:59;;;;;;;67.32;24.23;;;9.40;99.90;;;;;;5019150;28;20538;-38
2023/12/09 02:42:26;;;;;;;65.57;25.02;;;9.40;99.90;;;;;;5021256;28;20192;-37
2023/12/09 02:44:52;;;;;;;74.50;25.52;;;9.40;99.90;;;;;;5019486;28;20188;-40
2023/12/09 02:47:18;;;;;;;76.80;24.77;;;9.50;99.90;;;;;;5021051;28;20207;-39
2023/12/09 02:49:44;;;;;;;70.80;25.13;;;9.50;99.90;;;;;;5019264;28;20617;-37
2023/12/09 02:52:11;;;;;;;80.72;25.77;;;9.40;99.90;;;;;;5020920;28;20255;-37
2023/12/09 02:54:37;;;;;;;76.13;25.20;;;9.50;99.90;;;;;;5019034;28;20211;-38
2023/12/09 02:57:03;;;;;;;64.30;25.00;;;9.50;99.90;;;;;;5020730;28;20691;-44
2023/12/09 02:59:30;;;;;;;76.30;27.00;;;9.50;99.90;;;;;;5020344;28;20196;-39
2023/12/09 03:01:57;;;;;;;63.55;26.73;;;9.50;99.90;;;;;;5002736;28;20261;-38
2023/12/09 03:04:23;;;;;;;70.70;25.70;;;9.50;99.90;;;;;;5019637;28;20616;-37
2023/12/09 03:06:49;;;;;;;66.80;25.17;;;9.50;99.90;;;;;;5020089;28;20326;-41
2023/12/09 03:09:14;;;;;;;72.63;25.25;;;9.50;99.90;;;;;;5020389;28;20200;-36
2023/12/09 03:11:40;;;;;;;77.07;25.63;;;9.40;99.90;;;;;;5023582;28;20220;-40
2023/12/09 03:14:06;;;;;;;67.18;24.58;;;9.40;99.90;;;;;;5023127;28;20191;-38
2023/12/09 03:16:36;;;;;;;64.00;24.90;;;9.40;99.90;;;;;;5010461;28;20270;-38
2023/12/09 03:19:02;;;;;;;68.35;24.48;;;9.40;99.90;;;;;;5024333;28;20279;-37
2023/12/09 03:21:28;;;;;;;61.80;23.90;;;9.40;99.90;;;;;;5023475;28;20267;-38
2023/12/09 03:23:54;;;;;;;65.78;22.95;;;9.40;99.90;;;;;;5038482;28;20200;-36
2023/12/09 03:26:20;;;;;;;59.92;23.90;;;9.40;99.90;;;;;;5023159;28;20746;-37
2023/12/09 03:28:46;;;;;;;61.22;22.88;;;9.40;99.90;;;;;;5024185;28;20184;-37
2023/12/09 03:31:14;;;;;;;70.15;22.73;;;9.40;99.90;;;;;;5022205;28;20702;-34
2023/12/09 03:33:40;;;;;;;63.10;23.70;;;9.40;99.90;;;;;;5022618;28;20207;-37
2023/12/09 03:36:09;;;;;;;58.85;22.05;;;9.40;99.90;;;;;;5022827;28;20203;-37
2023/12/09 03:38:35;;;;;;;63.75;22.90;;;9.40;99.90;;;;;;5023399;28;20199;-42
2023/12/09 03:41:05;;;;;;;55.05;22.27;;;9.30;99.90;;;;;;5023682;28;20202;-37
2023/12/09 03:43:31;;;;;;;54.33;21.80;;;9.30;99.90;;;;;;5021819;28;20886;-35
2023/12/09 03:46:00;;;;;;;58.28;20.63;;;9.30;99.90;;;;;;5022568;28;20559;-37
2023/12/09 03:48:28;;;;;;;59.53;21.85;;;9.30;99.90;;;;;;5022253;28;20249;-38
2023/12/09 03:50:54;;;;;;;51.75;22.13;;;9.30;99.90;;;;;;5021996;28;21324;-41
2023/12/09 03:53:21;;;;;;;68.28;21.73;;;9.20;99.90;;;;;;5023018;28;20172;-36
2023/12/09 03:55:48;;;;;;;62.38;20.85;;;9.20;99.90;;;;;;5054654;28;20628;-37
2023/12/09 03:58:14;;;;;;;56.33;20.95;;;9.20;99.90;;;;;;5055096;28;20270;-39
2023/12/09 04:00:40;;;;;;;60.10;21.20;;;9.20;99.90;;;;;;5022842;28;20190;-38
2023/12/09 04:03:06;;;;;;;57.80;21.17;;;9.20;99.90;;;;;;5022461;28;20196;-37
2023/12/09 04:05:32;;;;;;;55.95;22.17;;;9.20;99.90;;;;;;5022302;28;20187;-36
2023/12/09 04:07:59;;;;;;;60.75;22.05;;;9.20;99.90;;;;;;5054572;28;20239;-37
2023/12/09 04:10:26;;;;;;;58.75;21.25;;;9.20;99.90;;;;;;5021570;28;20767;-36
2023/12/09 04:12:52;;;;;;;58.17;21.13;;;9.20;99.90;;;;;;5021895;28;20277;-39
2023/12/09 04:15:18;;;;;;;53.88;21.23;;;9.20;99.90;;;;;;5020820;28;20200;-41
2023/12/09 04:17:44;;;;;;;55.88;20.42;;;9.20;99.90;;;;;;5022738;28;20713;-37
2023/12/09 04:20:10;;;;;;;61.88;20.25;;;9.20;99.90;;;;;;5022979;28;20196;-37
2023/12/09 04:22:37;;;;;;;55.35;20.02;;;9.20;99.90;;;;;;5022140;28;20200;-40
2023/12/09 04:25:07;;;;;;;54.60;21.52;;;9.20;99.90;;;;;;5021121;28;20687;-40
2023/12/09 04:27:33;;;;;;;52.42;20.55;;;9.20;99.90;;;;;;5038139;28;20192;-36
2023/12/09 04:30:00;;;;;;;55.53;20.50;;;9.20;99.90;;;;;;5054135;28;20588;-40
2023/12/09 04:32:32;;;;;;;56.85;20.75;;;9.20;99.90;;;;;;5022712;28;20695;-39
2023/12/09 04:34:58;;;;;;;50.38;19.13;;;9.20;99.90;;;;;;5021891;28;20763;-41
2023/12/09 04:37:25;;;;;;;60.58;20.00;;;9.20;99.90;;;;;;5021298;28;20258;-41
2023/12/09 04:39:51;;;;;;;51.13;21.25;;;9.20;99.90;;;;;;5022608;28;20196;-40
2023/12/09 04:42:19;;;;;;;50.05;19.77;;;9.20;99.90;;;;;;5020482;28;20202;-36
2023/12/09 04:44:45;;;;;;;53.95;19.58;;;9.20;99.90;;;;;;5002098;28;20199;-41
2023/12/09 04:47:11;;;;;;;58.13;20.13;;;9.20;99.90;;;;;;5022102;28;20715;-41
2023/12/09 04:49:37;;;;;;;47.50;19.63;;;9.20;99.90;;;;;;5022101;28;20196;-36
2023/12/09 04:52:03;;;;;;;47.80;18.83;;;9.20;99.90;;;;;;5020189;28;20262;-39
2023/12/09 04:54:30;;;;;;;51.85;19.83;;;9.20;99.90;;;;;;5022501;28;21249;-38
2023/12/09 04:56:56;;;;;;;52.78;19.50;;;9.20;99.90;;;;;;5022086;28;20198;-39
2023/12/09 04:59:23;;;;;;;49.25;18.77;;;9.10;99.90;;;;;;5021508;28;20196;-39
2023/12/09 05:01:49;;;;;;;51.05;18.73;;;9.20;99.90;;;;;;5021458;28;20214;-36
2023/12/09 05:04:16;;;;;;;54.80;19.25;;;9.20;99.90;;;;;;5020913;28;20199;-36
2023/12/09 05:06:43;;;;;;;49.33;18.92;;;9.20;99.90;;;;;;5021331;28;20184;-38
2023/12/09 05:09:10;;;;;;;51.67;18.60;;;9.20;99.90;;;;;;5053206;28;20224;-42
2023/12/09 05:11:36;;;;;;;46.78;18.88;;;9.20;99.90;;;;;;5021259;28;20215;-41
2023/12/09 05:14:02;;;;;;;51.47;18.40;;;9.20;99.90;;;;;;5022023;28;20261;-41
2023/12/09 05:16:28;;;;;;;47.80;17.75;;;9.20;99.90;;;;;;5021772;28;20259;-42
2023/12/09 05:18:54;;;;;;;50.08;18.83;;;9.20;99.90;;;;;;5020177;28;20200;-40
2023/12/09 05:21:20;;;;;;;54.63;18.67;;;9.20;99.90;;;;;;5020925;28;20184;-42
2023/12/09 05:23:47;;;;;;;55.90;17.63;;;9.20;99.90;;;;;;5021057;28;20538;-35
2023/12/09 05:26:26;;;;;;;56.42;17.85;;;9.20;99.90;;;;;;5020363;28;20184;-39
2023/12/09 05:28:54;;;;;;;52.13;16.85;;;9.20;99.90;;;;;;5052820;28;20191;-35
2023/12/09 05:31:21;;;;;;;59.30;16.95;;;9.20;99.90;;;;;;5053058;28;20363;-42
2023/12/09 05:33:47;;;;;;;47.05;17.17;;;9.20;99.90;;;;;;5021060;28;20184;-39
2023/12/09 05:36:13;;;;;;;52.92;17.67;;;9.20;99.90;;;;;;5021167;28;20195;-37
2023/12/09 05:38:40;;;;;;;50.67;16.65;;;9.20;99.90;;;;;;5021320;28;21501;-34
2023/12/09 05:41:06;;;;;;;53.75;17.25;;;9.20;99.90;;;;;;5021139;28;20175;-37
2023/12/09 05:43:32;;;;;;;47.30;15.95;;;9.20;99.90;;;;;;5051401;28;20277;-40
2023/12/09 05:45:58;;;;;;;53.53;16.63;;;9.20;99.90;;;;;;5017680;28;20238;-43
2023/12/09 05:48:24;;;;;;;52.78;16.75;;;9.20;99.90;;;;;;5021135;28;20200;-38
2023/12/09 05:50:50;;;;;;;47.67;16.52;;;9.20;99.90;;;;;;5019705;28;20283;-37
2023/12/09 05:53:16;;;;;;;56.67;16.15;;;9.20;99.90;;;;;;5021199;28;20184;-36
2023/12/09 05:55:42;;;;;;;63.15;16.95;;;9.20;99.90;;;;;;5020849;28;20221;-39
2023/12/09 05:58:07;;;;;;;52.08;16.23;;;9.20;99.90;;;;;;5019486;28;20184;-43
2023/12/09 06:00:33;;;;;;;54.97;17.48;;;9.20;99.90;;;;;;5020412;28;20227;-41
2023/12/09 06:02:59;;;;;;;50.58;16.95;;;9.20;99.90;;;;;;5052163;28;20176;-36
2023/12/09 06:05:25;;;;;;;53.05;16.42;;;9.20;99.90;;;;;;5020814;28;20229;-42
2023/12/09 06:07:51;;;;;;;45.45;16.58;;;9.20;99.90;;;;;;5020683;28;20704;-37
2023/12/09 06:10:17;;;;;;;47.30;16.58;;;9.20;99.90;;;;;;5020562;28;20287;-35
2023/12/09 06:12:43;;;;;;;53.45;16.05;;;9.20;99.90;;;;;;5019646;28;20224;-36
2023/12/09 06:15:09;;;;;;;46.72;14.82;;;9.20;99.90;;;;;;5019893;28;20204;-36
2023/12/09 06:17:35;;;;;;;52.83;15.55;;;9.20;99.90;;;;;;5020130;28;20312;-42
2023/12/09 06:20:00;;;;;;;50.72;15.30;;;9.20;99.90;;;;;;5019430;28;20215;-38
2023/12/09 06:22:26;;;;;;;47.17;15.38;;;9.20;99.90;;;;;;5020795;28;20241;-40
2023/12/09 06:24:52;;;;;;;54.20;15.65;;;9.20;99.90;;;;;;5020758;28;20670;-40
2023/12/09 06:27:18;;;;;;;48.53;14.90;;;9.20;99.90;;;;;;5020560;28;20233;-38
2023/12/09 06:29:47;;;;;;;46.33;14.23;;;9.20;99.90;;;;;;5018821;28;20230;-36
2023/12/09 06:32:13;;;;;;;48.95;14.30;;;9.20;99.90;;;;;;5002500;28;20211;-37
2023/12/09 06:34:39;;;;;;;60.13;15.02;;;9.20;99.90;;;;;;5019391;28;20296;-38
2023/12/09 06:37:05;;;;;;;47.13;13.90;;;9.20;99.90;;;;;;5052630;28;20639;-35
2023/12/09 06:39:31;;;;;;;45.88;13.32;;;9.20;99.90;;;;;;5020193;28;20543;-36
2023/12/09 06:41:57;;;;;;;49.15;14.27;;;9.20;99.90;;;;;;5020750;28;20188;-37
2023/12/09 06:44:23;;;;;;;36.60;13.18;;;9.20;99.90;;;;;;5020484;28;20191;-38
2023/12/09 06:46:49;;;;;;;46.92;14.07;;;9.20;99.90;;;;;;5022896;28;20203;-37
2023/12/09 06:49:18;;;;;;;46.58;14.60;;;9.20;99.90;;;;;;5023236;28;21096;-40
2023/12/09 06:51:45;;;;;;;45.25;14.00;;;9.20;99.90;;;;;;5022136;28;20203;-38
2023/12/09 06:54:11;;;;;;;47.70;13.48;;;9.20;99.90;;;;;;5024562;28;21245;-35
2023/12/09 06:56:37;;;;;;;38.50;13.25;;;9.20;99.90;;;;;;5024244;28;20274;-41
2023/12/09 06:59:03;;;;;;;35.97;13.65;;;9.20;99.90;;;;;;5023174;28;20199;-39
2023/12/09 07:01:29;;;;;;;43.45;13.85;;;9.20;99.90;;;;;;5022477;28;20270;-36
2023/12/09 07:03:56;;;;;;;42.67;13.30;;;9.20;99.90;;;;;;5023544;28;20274;-38
2023/12/09 07:06:24;;;;;;;40.72;13.88;;;9.20;99.90;;;;;;5023500;28;20207;-36
2023/12/09 07:08:51;;;;;;;41.53;13.90;;;9.20;99.90;;;;;;5023435;28;20362;-34
2023/12/09 07:11:20;;;;;;;55.50;14.20;;;9.20;99.90;;;;;;5023486;28;20793;-39
2023/12/09 07:13:47;;;;;;;41.38;14.35;;;9.20;99.90;;;;;;5023152;28;20215;-36
2023/12/09 07:16:13;;;;;;;35.22;13.18;;;9.20;99.90;;;;;;5022525;28;20176;-43
2023/12/09 07:18:46;;;;;;;41.50;13.70;;;9.20;99.90;;;;;;5020937;28;20210;-39
2023/12/09 07:21:13;;;;;;;44.70;13.10;;;9.20;99.90;;;;;;5023464;28;20306;-35
2023/12/09 07:23:39;;;;;;;36.70;13.25;;;9.20;99.90;;;;;;5022943;28;20180;-38
2023/12/09 07:26:05;;;;;;;41.08;13.63;;;9.20;99.90;;;;;;5055442;28;20179;-40
2023/12/09 07:28:31;;;;;;;41.40;13.25;;;9.20;99.90;;;;;;5053920;28;20188;-46
2023/12/09 07:30:56;;;;;;;39.28;13.65;;;9.20;99.90;;;;;;5022573;28;20566;-37
2023/12/09 07:33:23;;;;;;;39.60;14.20;;;9.20;99.90;;;;;;5022129;28;20225;-39
2023/12/09 07:35:49;;;;;;;44.20;13.63;;;9.10;99.90;;;;;;5022996;28;20195;-38
2023/12/09 07:38:15;;;;;;;39.30;12.55;;;9.10;99.90;;;;;;5036587;28;20211;-47
2023/12/09 07:40:41;;;;;;;35.90;12.52;;;9.10;99.90;;;;;;5053242;28;20226;-37
2023/12/09 07:43:08;;;;;;;35.55;13.10;;;9.10;99.90;;;;;;5023203;28;20192;-39
2023/12/09 07:45:34;;;;;;;34.53;13.05;;;9.10;99.90;;;;;;5023019;28;20234;-41
2023/12/09 07:48:03;;;;;;;40.08;13.05;;;9.10;99.90;;;;;;5023364;28;20195;-40
2023/12/09 07:50:34;;;;;;;43.83;12.82;;;9.10;99.90;;;;;;5022341;28;20192;-37
2023/12/09 07:53:04;;;;;;;37.75;12.90;;;9.00;99.90;;;;;;5022936;28;20191;-39
2023/12/09 07:55:30;;;;;;;44.53;14.38;;;9.00;99.90;;;;;;5022203;28;20219;-37
2023/12/09 07:57:56;;;;;;;34.20;12.80;;;9.00;99.90;;;;;;5038415;28;20223;-41
2023/12/09 08:00:22;;;;;;;33.75;12.63;;;9.00;99.90;;;;;;5022805;28;20279;-39
2023/12/09 08:02:48;;;;;;;40.03;12.82;;;9.00;99.90;;;;;;5021796;28;20270;-42
2023/12/09 08:05:16;;;;;;;39.17;12.48;;;8.90;99.90;;;;;;5022993;28;20198;-38
2023/12/09 08:07:42;;;;;;;34.83;11.75;;;9.00;99.90;;;;;;5022650;28;20235;-42
2023/12/09 08:10:08;;;;;;;42.33;11.88;;;9.00;99.90;;;;;;5021799;28;20196;-41
2023/12/09 08:12:34;;;;;;;34.83;11.57;;;9.00;99.90;;;;;;5053170;28;20714;-39
2023/12/09 08:15:00;;;;;;;37.78;12.52;;;9.00;99.90;;;;;;5020771;28;20239;-45
2023/12/09 08:17:26;;;;;;;36.92;12.32;;;9.00;99.90;;;;;;5020765;28;20267;-39
2023/12/09 08:19:51;;;;;;;39.75;11.40;;;9.00;99.90;;;;;;5022944;28;20257;-42
2023/12/09 08:22:17;;;;;;;32.10;11.48;;;9.00;99.90;;;;;;5022799;28;20198;-40
2023/12/09 08:24:43;;;;;;;32.25;11.25;;;9.00;99.90;;;;;;5021138;28;20246;-40
2023/12/09 08:27:09;;;;;;;34.03;11.30;;;9.00;99.90;;;;;;5022306;28;20188;-43
2023/12/09 08:29:35;;;;;;;36.30;11.15;;;9.00;99.90;;;;;;5022496;28;20196;-38
2023/12/09 08:32:01;;;;;;;34.42;11.10;;;9.00;99.90;;;;;;5022207;28;20321;-45
2023/12/09 08:34:27;;;;;;;31.38;11.40;;;9.10;99.90;;;;;;5004093;28;20226;-40
2023/12/09 08:36:53;;;;;;;33.92;11.18;;;9.10;99.90;;;;;;5021720;28;20561;-39
2023/12/09 08:39:19;;;;;;;34.30;11.55;;;9.10;99.90;;;;;;5053707;28;20282;-42
2023/12/09 08:41:45;;;;;;;31.45;10.55;;;9.10;99.90;;;;;;5021340;28;20200;-41
2023/12/09 08:44:11;;;;;;;28.52;10.00;;;9.10;99.90;;;;;;5022237;28;20206;-39
2023/12/09 08:46:36;;;;;;;28.95;10.00;;;9.10;99.90;;;;;;5020595;28;20309;-38
2023/12/09 08:49:03;;;;;;;30.38;10.48;;;9.10;99.90;;;;;;5037231;28;20199;-39
2023/12/09 08:51:29;;;;;;;35.15;10.00;;;9.10;99.90;;;;;;5021174;28;20218;-42
2023/12/09 08:53:55;;;;;;;36.80;10.25;;;9.00;99.90;;;;;;5019270;28;20200;-38
2023/12/09 08:56:21;;;;;;;39.17;10.00;;;9.00;99.90;;;;;;5022083;28;20748;-42
2023/12/09 08:58:47;;;;;;;33.67;9.40;;;9.00;99.90;;;;;;5021929;28;20203;-47
2023/12/09 09:01:13;;;;;;;23.48;8.32;;;9.00;99.90;;;;;;5021797;28;20648;-42
2023/12/09 09:03:39;;;;;;;33.97;9.82;;;9.00;99.90;;;;;;5019970;28;20200;-43
2023/12/09 09:06:05;;;;;;;22.45;7.93;;;9.00;99.90;;;;;;5021722;28;20255;-36
2023/12/09 09:08:31;;;;;;;25.27;7.85;;;9.00;99.90;;;;;;5020494;28;20262;-37
2023/12/09 09:10:57;;;;;;;33.95;8.48;;;9.00;99.90;;;;;;5019990;28;20211;-40
2023/12/09 09:13:23;;;;;;;26.95;8.05;;;9.00;99.90;;;;;;5020429;28;20187;-44
2023/12/09 09:15:50;;;;;;;42.25;8.75;;;9.00;99.90;;;;;;5021100;28;20774;-44
2023/12/09 09:18:15;;;;;;;28.27;8.15;;;9.00;99.90;;;;;;5021201;28;20183;-40
2023/12/09 09:20:42;;;;;;;31.85;8.10;;;9.00;99.90;;;;;;5021164;28;20247;-39
2023/12/09 09:23:09;;;;;;;27.52;7.88;;;9.10;99.90;;;;;;5020099;28;20188;-43
2023/12/09 09:25:35;;;;;;;25.05;7.68;;;9.10;99.90;;;;;;5020109;28;20219;-37
2023/12/09 09:28:02;;;;;;;26.38;7.22;;;9.10;99.90;;;;;;5021482;28;20192;-41
2023/12/09 09:30:29;;;;;;;28.77;7.53;;;9.10;99.90;;;;;;5021741;28;20531;-41
2023/12/09 09:32:55;;;;;;;27.95;7.70;;;9.10;99.90;;;;;;5020627;28;20277;-38
2023/12/09 09:35:21;;;;;;;26.08;7.82;;;9.10;99.90;;;;;;5019672;28;21179;-41
2023/12/09 09:37:47;;;;;;;25.42;7.28;;;9.20;99.90;;;;;;5019826;28;20234;-41
2023/12/09 09:40:14;;;;;;;22.45;6.57;;;9.20;99.90;;;;;;5018943;28;20657;-37
2023/12/09 09:42:50;;;;;;;23.35;7.07;;;9.20;99.90;;;;;;5020649;28;20187;-41
2023/12/09 09:45:26;;;;;;;27.42;8.60;;;9.20;99.90;;;;;;5021148;28;20583;-38
2023/12/09 09:47:54;;;;;;;28.73;6.53;;;9.20;99.90;;;;;;5020023;28;20200;-39
2023/12/09 09:50:25;;;;;;;22.02;6.75;;;9.20;99.90;;;;;;5019129;28;20195;-39
2023/12/09 09:52:53;;;;;;;25.38;6.43;;;9.20;99.90;;;;;;5021292;28;20215;-38
2023/12/09 09:55:25;;;;;;;25.65;6.75;;;9.30;99.90;;;;;;5020843;28;20195;-38
2023/12/09 09:57:52;;;;;;;25.23;6.70;;;9.30;99.90;;;;;;5019884;28;20198;-38
2023/12/09 10:00:19;;;;;;;24.33;6.32;;;9.30;99.90;;;;;;5020603;28;20229;-39
2023/12/09 10:02:47;;;;;;;21.50;5.80;;;9.40;99.90;;;;;;5050917;28;20686;-36
2023/12/09 10:05:17;;;;;;;28.88;10.50;;;9.40;99.90;;;;;;5021013;28;20193;-39
2023/12/09 10:07:44;;;;;;;23.42;6.07;;;9.40;99.90;;;;;;5019737;28;20224;-41
2023/12/09 10:10:11;;;;;;;22.77;6.40;;;9.30;99.90;;;;;;5021018;28;20223;-44
2023/12/09 10:12:38;;;;;;;20.60;5.60;;;9.30;99.90;;;;;;5052262;28;20216;-42
2023/12/09 10:15:05;;;;;;;23.25;6.30;;;9.40;99.90;;;;;;5019585;28;20535;-37
2023/12/09 10:17:32;;;;;;;27.48;5.70;;;9.30;99.90;;;;;;5018009;28;20200;-40
2023/12/09 10:19:58;;;;;;;17.73;5.80;;;9.30;99.90;;;;;;5021357;28;20294;-43
2023/12/09 10:22:25;;;;;;;20.95;5.63;;;9.40;99.90;;;;;;5024461;28;20559;-38
2023/12/09 10:24:52;;;;;;;20.73;5.40;;;9.30;99.90;;;;;;5039216;28;20206;-38
2023/12/09 10:27:22;;;;;;;23.27;6.03;;;9.30;99.90;;;;;;5021911;28;20223;-36
2023/12/09 10:29:49;;;;;;;17.23;5.10;;;9.30;99.90;;;;;;5023461;28;20301;-38
2023/12/09 10:32:16;;;;;;;16.33;5.30;;;9.30;99.90;;;;;;5024512;28;20203;-39
2023/12/09 10:34:42;;;;;;;21.10;5.57;;;9.40;99.90;;;;;;5006065;28;20223;-38
2023/12/09 10:37:08;;;;;;;19.13;5.15;;;9.30;99.90;;;;;;5023620;28;20191;-37
2023/12/09 10:39:35;;;;;;;22.13;6.00;;;9.40;99.90;;;;;;5025005;28;20273;-40
2023/12/09 10:42:04;;;;;;;18.05;5.22;;;9.40;99.90;;;;;;5024951;28;20192;-42
2023/12/09 10:44:30;;;;;;;21.52;5.07;;;9.50;99.90;;;;;;5022219;28;20196;-43
2023/12/09 10:46:56;;;;;;;19.75;4.75;;;9.50;99.90;;;;;;5023676;28;20192;-39
2023/12/09 10:49:22;;;;;;;20.05;5.25;;;9.50;99.90;;;;;;5024082;28;20218;-42
2023/12/09 10:51:48;;;;;;;14.43;4.40;;;9.60;99.90;;;;;;5023910;28;20207;-41
2023/12/09 10:54:14;;;;;;;20.67;5.60;;;9.60;99.90;;;;;;5023830;28;20660;-41
2023/12/09 10:56:40;;;;;;;19.20;5.35;;;9.70;99.90;;;;;;5024245;28;20199;-40
2023/12/09 10:59:08;;;;;;;24.15;4.72;;;9.80;99.90;;;;;;5023654;28;20195;-37
2023/12/09 11:01:34;;;;;;;20.83;5.25;;;9.80;99.90;;;;;;5024137;28;20200;-41
2023/12/09 11:04:00;;;;;;;19.75;4.60;;;9.80;99.90;;;;;;5022555;28;20712;-43
2023/12/09 11:06:31;;;;;;;18.98;5.68;;;9.80;99.90;;;;;;5023947;28;20245;-40
2023/12/09 11:08:57;;;;;;;15.95;4.22;;;9.80;99.90;;;;;;5055091;28;20227;-36
2023/12/09 11:11:23;;;;;;;19.13;4.32;;;9.80;99.90;;;;;;5005646;28;20207;-43
2023/12/09 11:13:49;;;;;;;20.75;4.10;;;9.90;99.90;;;;;;5023411;28;20226;-40
2023/12/09 11:16:18;;;;;;;18.48;4.68;;;9.80;99.90;;;;;;5054218;28;20223;-41
2023/12/09 11:18:53;;;;;;;13.85;4.43;;;9.80;99.90;;;;;;5023982;28;20581;-42
2023/12/09 11:21:20;;;;;;;12.95;4.13;;;9.90;99.90;;;;;;5023271;28;21418;-44
2023/12/09 11:23:57;;;;;;;16.80;4.45;;;9.90;99.90;;;;;;5003284;28;20200;-36
2023/12/09 11:26:31;;;;;;;17.38;4.03;;;9.90;99.90;;;;;;5022441;28;20831;-43
2023/12/09 11:29:04;;;;;;;17.80;4.28;;;9.90;99.90;;;;;;5023387;28;20757;-42
2023/12/09 11:31:44;;;;;;;16.15;3.97;;;10.00;99.90;;;;;;5021160;28;20207;-38
2023/12/09 11:34:17;;;;;;;17.05;4.25;;;10.00;99.90;;;;;;5022200;28;20333;-40
2023/12/09 11:36:45;;;;;;;17.83;4.82;;;10.00;99.90;;;;;;5022189;28;20775;-37
2023/12/09 11:39:17;;;;;;;16.42;5.35;;;10.00;99.90;;;;;;5023560;28;20322;-40
2023/12/09 11:41:44;;;;;;;14.95;4.28;;;10.00;99.90;;;;;;5010020;28;20176;-41
2023/12/09 11:44:11;;;;;;;21.98;4.78;;;10.00;99.90;;;;;;5022789;28;20219;-43
2023/12/09 11:46:38;;;;;;;18.38;4.10;;;10.00;99.90;;;;;;5021190;28;20196;-39
2023/12/09 11:49:05;;;;;;;19.85;4.03;;;9.90;99.90;;;;;;5022950;28;20626;-39
2023/12/09 11:51:34;;;;;;;12.57;4.35;;;9.90;99.90;;;;;;5022155;28;20222;-38
2023/12/09 11:54:08;;;;;;;15.95;3.95;;;9.90;99.90;;;;;;5022843;28;20285;-43
2023/12/09 11:56:35;;;;;;;15.95;4.43;;;9.90;99.90;;;;;;5022457;28;20295;-43
2023/12/09 11:59:01;;;;;;;13.70;4.18;;;9.90;99.90;;;;;;5020486;28;20546;-40
2023/12/09 12:01:31;;;;;;;17.65;4.75;;;10.00;99.90;;;;;;5021460;28;20183;-41
2023/12/09 12:03:58;;;;;;;14.95;5.47;;;10.00;99.90;;;;;;5022244;28;20188;-38
2023/12/09 12:06:24;;;;;;;16.45;5.25;;;10.00;99.90;;;;;;5022583;28;20176;-39
2023/12/09 12:08:54;;;;;;;15.60;4.35;;;10.00;99.90;;;;;;5020614;28;20329;-38
2023/12/09 12:11:24;;;;;;;19.23;4.50;;;10.00;99.90;;;;;;5021254;28;20222;-40
2023/12/09 12:13:53;;;;;;;10.68;3.97;;;10.00;99.90;;;;;;5022363;28;20241;-40
2023/12/09 12:16:19;;;;;;;15.00;4.07;;;10.10;99.90;;;;;;5022134;28;20267;-41
2023/12/09 12:18:48;;;;;;;11.55;4.00;;;10.10;99.90;;;;;;5021742;28;20307;-40
2023/12/09 12:21:14;;;;;;;13.02;3.72;;;10.10;99.90;;;;;;5021626;28;20191;-41
2023/12/09 12:23:40;;;;;;;15.10;3.83;;;10.10;99.90;;;;;;5021777;28;20196;-37
2023/12/09 12:26:08;;;;;;;16.15;4.22;;;10.00;99.90;;;;;;5052903;28;20246;-38
2023/12/09 12:28:34;;;;;;;15.98;4.63;;;10.00;99.90;;;;;;5020131;28;20242;-38
2023/12/09 12:31:00;;;;;;;17.23;4.90;;;10.00;99.90;;;;;;5020013;28;20755;-39
2023/12/09 12:33:28;;;;;;;17.67;4.65;;;10.00;99.90;;;;;;5018540;28;20188;-43
2023/12/09 12:35:55;;;;;;;11.65;4.05;;;10.00;99.90;;;;;;5021359;28;20196;-40
2023/12/09 12:38:22;;;;;;;14.32;4.80;;;10.00;99.90;;;;;;5021161;28;20207;-40